createdAt,value
2022-10-02T00:02:31.417Z,14.43
2022-10-02T00:05:37.060Z,14.34
2022-10-02T00:08:41.503Z,14.34
2022-10-02T00:11:45.526Z,14.32
2022-10-02T00:14:49.190Z,14.35
2022-10-02T00:17:53.415Z,14.37
2022-10-02T00:21:24.612Z,14.30
2022-10-02T00:24:31.595Z,14.26
2022-10-02T00:27:41.579Z,14.33
2022-10-02T00:31:02.919Z,14.30
2022-10-02T00:34:15.141Z,14.26
2022-10-02T00:37:32.953Z,14.26
2022-10-02T00:41:04.750Z,14.26
2022-10-02T00:44:39.649Z,14.26
2022-10-02T00:47:51.003Z,14.39
2022-10-02T00:51:05.567Z,14.24
2022-10-02T00:54:07.927Z,14.22
2022-10-02T00:57:13.257Z,14.15
2022-10-02T01:00:19.447Z,14.14
2022-10-02T01:03:28.664Z,14.09
2022-10-02T01:06:31.284Z,14.15
2022-10-02T01:09:34.051Z,14.08
2022-10-02T01:12:38.055Z,14.08
2022-10-02T01:15:44.495Z,14.04
2022-10-02T01:18:48.085Z,14.04
2022-10-02T01:21:53.350Z,14.01
2022-10-02T01:24:57.051Z,14.04
2022-10-02T01:27:59.795Z,13.94
2022-10-02T01:31:05.128Z,13.93
2022-10-02T01:34:07.883Z,13.86
2022-10-02T01:37:10.863Z,13.83
2022-10-02T01:40:23.372Z,13.81
2022-10-02T01:43:32.048Z,13.78
2022-10-02T01:46:53.462Z,13.78
2022-10-02T01:49:58.920Z,13.71
2022-10-02T01:53:19.571Z,13.70
2022-10-02T01:56:38.111Z,13.69
2022-10-02T01:59:44.020Z,13.68
2022-10-02T02:02:51.229Z,13.69
2022-10-02T02:05:56.216Z,13.75
2022-10-02T02:09:05.088Z,13.69
2022-10-02T02:12:40.296Z,13.72
2022-10-02T02:15:49.295Z,13.64
2022-10-02T02:19:00.212Z,13.65
2022-10-02T02:22:17.475Z,13.57
2022-10-02T02:25:26.203Z,13.51
2022-10-02T02:28:31.000Z,13.46
2022-10-02T02:31:37.325Z,13.41
2022-10-02T02:34:42.947Z,13.53
2022-10-02T02:37:47.788Z,13.35
2022-10-02T02:40:51.335Z,13.29
2022-10-02T02:43:58.507Z,13.47
2022-10-02T02:47:04.080Z,13.29
2022-10-02T02:50:16.865Z,13.26
2022-10-02T02:53:23.372Z,13.25
2022-10-02T02:56:28.325Z,13.24
2022-10-02T02:59:32.312Z,13.27
2022-10-02T03:02:34.873Z,13.26
2022-10-02T03:05:39.228Z,13.25
2022-10-02T03:08:42.058Z,13.24
2022-10-02T03:12:04.927Z,13.24
2022-10-02T03:15:27.236Z,13.20
2022-10-02T03:18:43.003Z,13.21
2022-10-02T03:21:57.582Z,13.20
2022-10-02T03:25:03.863Z,13.23
2022-10-02T03:28:27.224Z,13.26
2022-10-02T03:31:39.805Z,13.34
2022-10-02T03:34:42.375Z,13.31
2022-10-02T03:37:47.691Z,13.29
2022-10-02T03:40:53.009Z,13.28
2022-10-02T03:43:55.503Z,13.31
2022-10-02T03:46:58.028Z,13.32
2022-10-02T03:50:00.459Z,13.45
2022-10-02T03:53:09.914Z,13.39
2022-10-02T03:56:31.418Z,13.38
2022-10-02T03:59:40.042Z,13.31
2022-10-02T04:02:44.573Z,13.29
2022-10-02T04:05:53.321Z,13.39
2022-10-02T04:09:02.891Z,13.37
2022-10-02T04:12:11.368Z,13.42
2022-10-02T04:15:20.610Z,13.39
2022-10-02T04:18:26.694Z,13.39
2022-10-02T04:21:32.075Z,13.47
2022-10-02T04:24:45.694Z,13.44
2022-10-02T04:27:51.270Z,13.49
2022-10-02T04:30:54.036Z,13.53
2022-10-02T04:34:00.827Z,13.76
2022-10-02T04:37:21.843Z,13.56
2022-10-02T04:40:24.662Z,13.51
2022-10-02T04:43:36.855Z,13.51
2022-10-02T04:46:48.438Z,13.53
2022-10-02T04:50:04.330Z,13.66
2022-10-02T04:53:17.038Z,13.53
2022-10-02T04:56:38.365Z,13.62
2022-10-02T04:59:44.004Z,13.58
2022-10-02T05:03:05.298Z,13.49
2022-10-02T05:06:35.530Z,13.44
2022-10-02T05:09:40.189Z,13.45
2022-10-02T05:12:57.758Z,13.43
2022-10-02T05:16:19.025Z,13.48
2022-10-02T05:19:33.809Z,13.48
2022-10-02T05:22:39.083Z,13.49
2022-10-02T05:26:14.332Z,13.55
2022-10-02T05:29:26.277Z,13.56
2022-10-02T05:32:37.138Z,13.59
2022-10-02T05:35:47.686Z,13.68
2022-10-02T05:39:07.902Z,13.75
2022-10-02T05:42:16.222Z,13.80
2022-10-02T05:45:25.419Z,13.79
2022-10-02T05:48:32.570Z,13.87
2022-10-02T05:51:40.349Z,13.93
2022-10-02T05:54:47.083Z,13.96
2022-10-02T05:57:52.610Z,13.97
2022-10-02T06:00:58.698Z,14.06
2022-10-02T06:04:06.198Z,14.08
2022-10-02T06:07:10.315Z,14.26
2022-10-02T06:10:17.752Z,14.30
2022-10-02T06:13:29.308Z,14.43
2022-10-02T06:16:38.462Z,14.49
2022-10-02T06:19:44.986Z,14.57
2022-10-02T06:22:50.687Z,14.68
2022-10-02T06:25:59.338Z,14.81
2022-10-02T06:29:07.649Z,14.93
2022-10-02T06:32:32.044Z,15.13
2022-10-02T06:35:43.373Z,15.16
2022-10-02T06:38:48.734Z,15.34
2022-10-02T06:41:54.595Z,15.47
2022-10-02T06:44:59.640Z,15.54
2022-10-02T06:48:13.257Z,15.68
2022-10-02T06:51:37.583Z,15.90
2022-10-02T06:54:52.519Z,16.09
2022-10-02T06:58:13.558Z,16.37
2022-10-02T07:01:27.689Z,16.61
2022-10-02T07:04:33.101Z,17.00
2022-10-02T07:08:05.166Z,17.26
2022-10-02T07:11:07.311Z,17.54
2022-10-02T07:14:22.110Z,17.86
2022-10-02T07:17:41.318Z,18.13
2022-10-02T07:20:44.011Z,18.45
2022-10-02T07:23:51.950Z,18.82
2022-10-02T07:27:09.271Z,18.96
2022-10-02T07:30:12.676Z,19.29
2022-10-02T07:33:21.293Z,19.79
2022-10-02T07:36:32.766Z,20.32
2022-10-02T07:39:54.356Z,20.94
2022-10-02T07:43:15.559Z,25.17
2022-10-02T07:46:24.049Z,32.04
2022-10-02T07:49:38.244Z,37.84
2022-10-02T07:52:49.135Z,41.64
2022-10-02T07:55:53.240Z,45.04
2022-10-02T07:58:58.481Z,47.32
2022-10-02T08:02:09.193Z,48.77
2022-10-02T08:05:18.145Z,49.38
2022-10-02T08:08:30.412Z,49.85
2022-10-02T08:11:37.175Z,49.90
2022-10-02T08:14:45.412Z,48.99
2022-10-02T08:17:50.347Z,50.11
2022-10-02T08:20:52.670Z,50.19
2022-10-02T08:23:55.374Z,49.36
2022-10-02T08:26:59.307Z,47.08
2022-10-02T08:30:03.909Z,44.29
2022-10-02T08:33:18.002Z,41.14
2022-10-02T08:36:29.876Z,38.40
2022-10-02T08:39:32.052Z,35.71
2022-10-02T08:43:04.188Z,34.33
2022-10-02T08:46:23.583Z,33.03
2022-10-02T08:49:33.862Z,31.80
2022-10-02T08:52:54.831Z,31.12
2022-10-02T08:56:03.133Z,30.91
2022-10-02T08:59:26.041Z,30.61
2022-10-02T09:03:07.243Z,30.04
2022-10-02T09:06:09.448Z,30.21
2022-10-02T09:09:14.998Z,30.03
2022-10-02T09:12:37.942Z,30.12
2022-10-02T09:16:13.334Z,29.74
2022-10-02T09:19:15.558Z,29.46
2022-10-02T09:22:24.418Z,28.75
2022-10-02T09:25:35.898Z,29.08
2022-10-02T09:28:38.562Z,29.46
2022-10-02T09:31:41.153Z,28.77
2022-10-02T09:35:10.051Z,28.72
2022-10-02T09:38:14.129Z,29.55
2022-10-02T09:41:34.936Z,30.51
2022-10-02T09:45:01.590Z,30.97
2022-10-02T09:48:07.094Z,30.91
2022-10-02T09:51:27.863Z,30.41
2022-10-02T09:54:48.693Z,30.11
2022-10-02T09:57:56.771Z,29.64
2022-10-02T10:00:59.654Z,28.44
2022-10-02T10:04:20.644Z,28.20
2022-10-02T10:07:46.135Z,27.73
2022-10-02T10:10:56.231Z,28.41
2022-10-02T10:14:02.020Z,28.43
2022-10-02T10:17:09.255Z,27.46
2022-10-02T10:20:41.317Z,26.91
2022-10-02T10:23:57.893Z,27.65
2022-10-02T10:27:11.282Z,27.30
2022-10-02T10:30:40.247Z,26.74
2022-10-02T10:33:42.612Z,26.34
2022-10-02T10:37:19.424Z,26.00
2022-10-02T10:40:27.637Z,25.69
2022-10-02T10:43:37.564Z,26.35
2022-10-02T10:46:42.719Z,26.09
2022-10-02T10:50:04.130Z,25.74
2022-10-02T10:53:29.620Z,25.14
2022-10-02T10:56:37.157Z,24.71
2022-10-02T10:59:42.552Z,24.53
2022-10-02T11:02:55.136Z,24.36
2022-10-02T11:06:06.980Z,24.07
2022-10-02T11:09:09.481Z,23.84
2022-10-02T11:12:22.955Z,23.54
2022-10-02T11:15:43.277Z,23.36
2022-10-02T11:19:00.887Z,23.06
2022-10-02T11:22:09.805Z,22.95
2022-10-02T11:25:19.502Z,22.94
2022-10-02T11:28:41.725Z,22.97
2022-10-02T11:31:47.063Z,23.20
2022-10-02T11:35:02.001Z,22.87
2022-10-02T11:38:04.479Z,23.47
2022-10-02T11:41:20.810Z,24.55
2022-10-02T11:44:43.468Z,25.42
2022-10-02T11:47:46.776Z,26.06
2022-10-02T11:50:49.503Z,25.95
2022-10-02T11:54:12.590Z,26.29
2022-10-02T11:57:15.141Z,26.49
2022-10-02T12:00:36.042Z,26.58
2022-10-02T12:03:41.851Z,26.54
2022-10-02T12:07:02.045Z,26.72
2022-10-02T12:10:10.908Z,26.41
2022-10-02T12:13:16.077Z,26.23
2022-10-02T12:16:19.327Z,25.46
2022-10-02T12:19:33.721Z,25.27
2022-10-02T12:23:06.446Z,25.89
2022-10-02T12:26:34.445Z,24.94
2022-10-02T12:29:53.464Z,25.05
2022-10-02T12:33:08.223Z,25.32
2022-10-02T12:36:17.616Z,25.47
2022-10-02T12:39:25.971Z,24.71
2022-10-02T12:42:31.751Z,24.08
2022-10-02T12:45:52.799Z,23.72
2022-10-02T12:48:55.555Z,22.60
2022-10-02T12:51:57.864Z,21.92
2022-10-02T12:55:19.403Z,21.80
2022-10-02T12:58:37.047Z,21.76
2022-10-02T13:01:58.729Z,21.60
2022-10-02T13:05:28.815Z,21.38
2022-10-02T13:08:50.406Z,20.92
2022-10-02T13:12:11.929Z,20.90
2022-10-02T13:15:20.423Z,20.62
2022-10-02T13:18:23.064Z,20.76
2022-10-02T13:21:46.917Z,20.90
2022-10-02T13:25:18.143Z,20.88
2022-10-02T13:28:27.875Z,21.09
2022-10-02T13:31:36.797Z,20.94
2022-10-02T13:34:55.018Z,20.92
2022-10-02T13:38:09.896Z,20.73
2022-10-02T13:41:30.890Z,20.58
2022-10-02T13:44:40.875Z,20.39
2022-10-02T13:47:50.763Z,19.98
2022-10-02T13:51:11.911Z,19.92
2022-10-02T13:54:38.299Z,19.74
2022-10-02T13:57:56.691Z,19.67
2022-10-02T14:01:19.251Z,19.32
2022-10-02T14:04:22.612Z,19.20
2022-10-02T14:07:35.624Z,19.17
2022-10-02T14:10:47.556Z,19.23
2022-10-02T14:13:52.868Z,19.33
2022-10-02T14:17:04.953Z,19.13
2022-10-02T14:20:25.929Z,19.11
2022-10-02T14:23:31.402Z,19.35
2022-10-02T14:26:33.790Z,19.33
2022-10-02T14:29:45.760Z,19.04
2022-10-02T14:32:48.165Z,18.95
2022-10-02T14:35:54.128Z,18.84
2022-10-02T14:39:03.454Z,18.91
2022-10-02T14:42:25.951Z,18.99
2022-10-02T14:45:31.568Z,18.94
2022-10-02T14:49:03.071Z,18.88
2022-10-02T14:52:15.472Z,18.81
2022-10-02T14:55:18.877Z,18.84
2022-10-02T14:58:30.259Z,18.85
2022-10-02T15:01:35.092Z,18.77
2022-10-02T15:05:02.292Z,18.62
2022-10-02T15:08:16.112Z,18.56
2022-10-02T15:11:22.692Z,18.32
2022-10-02T15:14:25.334Z,18.32
2022-10-02T15:17:55.467Z,18.23
2022-10-02T15:21:09.517Z,18.08
2022-10-02T15:24:20.524Z,18.03
2022-10-02T15:27:37.433Z,17.78
2022-10-02T15:30:47.339Z,17.78
2022-10-02T15:34:10.711Z,17.70
2022-10-02T15:37:25.786Z,17.60
2022-10-02T15:40:36.686Z,17.59
2022-10-02T15:44:06.829Z,17.57
2022-10-02T15:47:09.347Z,17.43
2022-10-02T15:50:17.513Z,17.36
2022-10-02T15:53:25.803Z,17.35
2022-10-02T15:56:31.263Z,17.34
2022-10-02T15:59:39.508Z,17.17
2022-10-02T16:02:51.344Z,17.12
2022-10-02T16:06:03.691Z,17.10
2022-10-02T16:09:16.349Z,16.96
2022-10-02T16:12:34.071Z,16.95
2022-10-02T16:15:53.112Z,16.92
2022-10-02T16:18:58.655Z,16.94
2022-10-02T16:22:19.837Z,16.77
2022-10-02T16:25:34.417Z,16.68
2022-10-02T16:28:52.161Z,16.64
2022-10-02T16:32:03.306Z,16.55
2022-10-02T16:35:26.015Z,16.53
2022-10-02T16:38:36.903Z,16.45
2022-10-02T16:41:39.300Z,16.43
2022-10-02T16:44:57.225Z,16.39
2022-10-02T16:48:10.403Z,16.36
2022-10-02T16:51:29.676Z,16.53
2022-10-02T16:54:34.769Z,16.39
2022-10-02T16:57:43.410Z,16.35
2022-10-02T17:00:50.594Z,16.25
2022-10-02T17:04:11.741Z,16.16
2022-10-02T17:07:26.158Z,16.29
2022-10-02T17:10:40.369Z,16.22
2022-10-02T17:14:01.793Z,16.39
2022-10-02T17:17:24.834Z,16.30
2022-10-02T17:20:31.410Z,16.19
2022-10-02T17:23:33.870Z,16.17
2022-10-02T17:26:40.855Z,16.17
2022-10-02T17:29:51.335Z,16.26
2022-10-02T17:33:06.984Z,16.17
2022-10-02T17:36:29.151Z,16.12
2022-10-02T17:39:37.715Z,16.07
2022-10-02T17:43:00.228Z,16.08
2022-10-02T17:46:05.545Z,16.15
2022-10-02T17:49:08.099Z,16.17
2022-10-02T17:52:32.687Z,16.12
2022-10-02T17:56:13.731Z,16.09
2022-10-02T17:59:25.769Z,16.08
2022-10-02T18:02:55.073Z,16.35
2022-10-02T18:06:24.195Z,16.26
2022-10-02T18:09:35.691Z,16.09
2022-10-02T18:12:52.917Z,16.15
2022-10-02T18:15:55.100Z,16.02
2022-10-02T18:18:57.820Z,15.97
2022-10-02T18:22:18.999Z,15.99
2022-10-02T18:25:24.569Z,16.10
2022-10-02T18:28:45.357Z,15.98
2022-10-02T18:32:07.154Z,16.00
2022-10-02T18:35:22.053Z,16.00
2022-10-02T18:38:44.966Z,15.95
2022-10-02T18:41:50.259Z,16.04
2022-10-02T18:44:53.042Z,15.97
2022-10-02T18:48:19.764Z,16.01
2022-10-02T18:51:35.051Z,16.00
2022-10-02T18:54:37.366Z,15.91
2022-10-02T18:57:44.171Z,15.91
2022-10-02T19:01:25.293Z,15.84
2022-10-02T19:04:40.407Z,15.82
2022-10-02T19:07:45.635Z,15.77
2022-10-02T19:10:48.371Z,15.81
2022-10-02T19:13:50.605Z,15.65
2022-10-02T19:16:58.669Z,15.80
2022-10-02T19:20:14.219Z,15.67
2022-10-02T19:23:28.334Z,15.63
2022-10-02T19:26:33.206Z,15.71
2022-10-02T19:29:39.314Z,15.76
2022-10-02T19:32:42.340Z,15.69
2022-10-02T19:35:45.060Z,15.60
2022-10-02T19:38:53.478Z,15.61
2022-10-02T19:41:57.804Z,15.69
2022-10-02T19:45:03.056Z,15.61
2022-10-02T19:48:10.260Z,15.70
2022-10-02T19:51:17.287Z,15.69
2022-10-02T19:54:23.197Z,15.49
2022-10-02T19:57:29.941Z,15.52
2022-10-02T20:00:38.369Z,15.59
2022-10-02T20:03:42.412Z,15.62
2022-10-02T20:06:48.446Z,15.55
2022-10-02T20:10:01.032Z,15.59
2022-10-02T20:13:14.210Z,15.52
2022-10-02T20:16:44.465Z,15.57
2022-10-02T20:19:53.017Z,15.48
2022-10-02T20:22:58.809Z,15.55
2022-10-02T20:26:08.259Z,15.52
2022-10-02T20:29:14.551Z,15.37
2022-10-02T20:32:19.663Z,15.25
2022-10-02T20:35:29.854Z,15.31
2022-10-02T20:38:38.003Z,15.23
2022-10-02T20:41:50.250Z,15.22
2022-10-02T20:44:52.747Z,15.23
2022-10-02T20:48:13.852Z,15.28
2022-10-02T20:51:24.635Z,15.22
2022-10-02T20:54:43.682Z,15.20
2022-10-02T20:58:04.947Z,15.17
2022-10-02T21:01:07.526Z,15.25
2022-10-02T21:04:28.856Z,15.23
2022-10-02T21:07:54.248Z,15.10
2022-10-02T21:11:09.247Z,15.14
2022-10-02T21:14:30.547Z,15.13
2022-10-02T21:17:51.727Z,15.16
2022-10-02T21:21:03.233Z,15.12
2022-10-02T21:24:18.833Z,15.06
2022-10-02T21:27:24.331Z,15.13
2022-10-02T21:30:34.141Z,15.08
2022-10-02T21:33:40.442Z,15.10
2022-10-02T21:36:57.549Z,15.06
2022-10-02T21:40:18.831Z,14.98
2022-10-02T21:43:40.064Z,14.99
2022-10-02T21:46:48.582Z,15.03
2022-10-02T21:49:57.361Z,14.99
2022-10-02T21:53:15.179Z,15.00
2022-10-02T21:56:36.665Z,14.94
2022-10-02T21:59:45.033Z,14.90
2022-10-02T22:02:50.458Z,15.00
2022-10-02T22:06:08.054Z,14.96
2022-10-02T22:09:42.822Z,14.89
2022-10-02T22:12:57.342Z,14.85
2022-10-02T22:16:04.810Z,14.79
2022-10-02T22:19:30.199Z,14.71
2022-10-02T22:22:38.559Z,14.73
2022-10-02T22:25:46.969Z,14.74
2022-10-02T22:28:52.654Z,14.82
2022-10-02T22:32:20.034Z,14.82
2022-10-02T22:35:33.596Z,14.71
2022-10-02T22:38:36.105Z,14.73
2022-10-02T22:41:43.041Z,14.67
2022-10-02T22:44:57.924Z,14.69
2022-10-02T22:48:03.428Z,14.78
2022-10-02T22:51:12.086Z,14.78
2022-10-02T22:54:22.054Z,14.69
2022-10-02T22:57:43.154Z,14.64
2022-10-02T23:00:46.268Z,14.67
2022-10-02T23:03:58.192Z,14.66
2022-10-02T23:07:14.103Z,14.78
2022-10-02T23:10:28.558Z,14.68
2022-10-02T23:13:57.177Z,14.68
2022-10-02T23:17:03.327Z,14.71
2022-10-02T23:20:05.869Z,14.67
2022-10-02T23:23:19.516Z,14.59
2022-10-02T23:26:41.251Z,14.60
2022-10-02T23:29:46.752Z,14.58
2022-10-02T23:32:52.284Z,14.61
2022-10-02T23:35:57.655Z,14.45
2022-10-02T23:39:12.887Z,14.53
2022-10-02T23:42:19.298Z,14.55
2022-10-02T23:45:21.688Z,14.48
2022-10-02T23:48:24.558Z,14.42
2022-10-02T23:51:35.639Z,14.34
2022-10-02T23:54:38.112Z,14.40
2022-10-02T23:57:59.592Z,14.47
